Latest Coastal Weather Observations for Weipa

IDQ60701

Issued at 4:35 am EST Sunday 24 August 2014 (issued every 10 minutes, with the page automatically refreshed every 10 minutes)

About coastal observations | Map of coastal stations | Coastal observations for QLD | Marine services | Other Formats
Station Details ID: 027045 Name: WEIPA AERO Lat: -12.68 Lon: 141.92 Height: 17.96 m
Data from the previous 72 hours. | See also: Recent months at Weipa
Date/Time
EST
Temp

°C
Wind Pressure Rain
since 9am
mm
Weather Cloud Vis
km
Sea
Height
m
Swell
Dir
 
Speed
knots
Gust
knots
hPa Trend Height
m
Period
s
Dir
24/04:30am 20.3 SSE 3 4 1013.3 - 0.0 - - 10 - - - -
24/04:00am 20.5 S 3 4 1013.5 - 0.0 - - 10 - - - -
24/03:30am 20.9 S 4 5 1013.4 - 0.0 - - 10 - - - -
24/03:00am 21.5 S 3 5 1013.4 - 0.0 - - 10 - - - -
24/02:30am 22.1 ESE 4 5 1013.6 - 0.0 - - 10 - - - -
24/02:00am 22.4 ESE 5 7 1013.9 - 0.0 - - 10 - - - -
24/01:30am 22.5 ESE 4 6 1014.1 - 0.0 - - 10 - - - -
24/01:00am 22.9 SE 5 8 1014.4 - 0.0 - - 10 - - - -
24/12:30am 22.9 ESE 5 7 1014.7 - 0.0 - - 10 - - - -
24/12:00am 22.9 ESE 5 8 1014.8 - 0.0 - - 10 - - - -
 
Date/Time
EST
Temp

°C
Wind Pressure Rain
since 9am
mm
Weather Cloud Vis
km
Sea
Height
m
Swell
Dir
 
Speed
knots
Gust
knots
hPa Trend Height
m
Period
s
Dir
23/11:30pm 22.9 E 3 5 1015.2 - 0.0 - - 10 - - - -
23/11:00pm 23.3 E 4 5 1015.3 - 0.0 - - 10 - - - -
23/10:30pm 23.8 E 5 8 1015.3 - 0.0 - - 10 - - - -
23/10:00pm 24.4 E 5 8 1015.3 - 0.0 - Cloudy 10 - - - -
23/09:30pm 24.8 E 4 8 1015.1 - 0.0 - Cloudy 10 - - - -
23/09:00pm 25.1 E 5 10 1014.5 - 0.0 - - 10 - - - -
23/08:30pm 25.6 E 7 12 1014.4 - 0.0 - - 10 - - - -
23/08:00pm 26.2 ESE 11 15 1013.9 - 0.0 - - 10 - - - -
23/07:30pm 26.9 E 9 13 1013.4 - 0.0 - - 10 - - - -
23/07:00pm 27.6 E 8 11 1012.9 - 0.0 - - 10 - - - -
23/06:30pm 28.3 E 9 12 1012.3 - 0.0 - - 10 - - - -
23/06:00pm 29.1 E 10 17 1011.8 - 0.0 - - 10 - - - -
23/05:30pm 29.6 ESE 12 18 1011.8 - 0.0 - Partly cloudy 10 - - - -
23/05:00pm 31.1 ESE 10 17 1011.5 - 0.0 - Partly cloudy 10 - - - -
23/04:30pm 31.0 ESE 12 18 1011.5 - 0.0 - Partly cloudy 10 - - - -
23/04:00pm 31.6 ESE 9 18 1011.5 - 0.0 - Partly cloudy 10 - - - -
23/03:30pm 30.5 ESE 11 17 1011.7 - 0.0 - Partly cloudy 10 - - - -
23/03:00pm 30.4 ESE 11 15 1011.8 F 0.0 Haze Mostly cloudy 25 - - - -
23/02:30pm 30.3 ESE 9 12 1012.2 - 0.0 - Cloudy 10 - - - -
23/02:00pm 30.8 ESE 12 17 1012.5 - 0.0 - Partly cloudy 10 - - - -
23/01:30pm 32.1 SE 9 18 1012.8 - 0.0 - Partly cloudy 10 - - - -
23/01:00pm 30.9 E 10 16 1013.4 - 0.0 - Partly cloudy 10 - - - -
23/12:30pm 30.1 SE 8 16 1013.9 - 0.0 - Partly cloudy 10 - - - -
23/12:00pm 29.6 ESE 9 14 1014.3 - 0.0 - Cloudy 10 - - - -
23/11:30am 28.9 E 11 16 1014.7 - 0.0 - - 10 - - - -
23/11:00am 28.2 ESE 9 12 1015.1 - 0.0 - - 10 - - - -
23/10:30am 27.8 SE 12 17 1015.5 - 0.0 - - 10 - - - -
23/10:00am 27.2 ESE 13 18 1015.8 - 0.0 - - 10 - - - -
23/09:30am 26.0 SE 8 17 1016.0 - 0.0 - - 10 - - - -
23/09:00am 24.6 SE 6 10 1015.8 R 0.0 Haze Mostly clear 25 - - - -
23/08:30am 22.8 SE 5 8 1015.7 - 0.0 - - 10 - - - -
23/08:00am 20.8 S 3 5 1015.5 - 0.0 - Partly cloudy 10 - - - -
23/07:30am 20.0 S 3 4 1015.3 - 0.0 - Partly cloudy 10 - - - -
23/07:00am 19.6 S 1 2 1015.1 - 0.0 - Partly cloudy 10 - - - -
23/06:30am 19.5 S 2 3 1014.7 - 0.0 - - 10 - - - -
23/06:00am 19.5 S 2 3 1014.2 R 0.0 Fine Mostly clear 35 - - - -
23/05:30am 19.9 SSE 3 5 1014.0 - 0.0 - - 10 - - - -
23/05:00am 19.4 SSE 2 3 1013.8 - 0.0 - - 10 - - - -
23/04:30am 19.7 SSE 2 3 1013.6 - 0.0 - - 10 - - - -
23/04:00am 19.6 CALM 0 2 1013.6 - 0.0 - - 10 - - - -
23/03:30am 19.7 CALM 0 1 1013.6 - 0.0 - - 10 - - - -
23/03:00am 20.1 SE 1 2 1013.6 - 0.0 - - 10 - - - -
23/02:30am 20.3 ESE 1 2 1014.0 - 0.0 - - 10 - - - -
23/02:00am 20.6 SSE 2 2 1014.1 - 0.0 - - 10 - - - -
23/01:30am 20.8 SE 1 2 1014.4 - 0.0 - - 10 - - - -
23/01:00am 21.5 ESE 1 2 1014.4 - 0.0 - - 10 - - - -
23/12:30am 21.9 SE 2 3 1014.5 - 0.0 - - 10 - - - -
23/12:00am 21.9 SE 3 3 1014.5 - 0.0 - - 10 - - - -
 
Date/Time
EST
Temp

°C
Wind Pressure Rain
since 9am
mm
Weather Cloud Vis
km
Sea
Height
m
Swell
Dir
 
Speed
knots
Gust
knots
hPa Trend Height
m
Period
s
Dir
22/11:30pm 22.1 ESE 3 4 1014.6 - 0.0 - - 10 - - - -
22/11:00pm 22.4 SE 2 7 1014.5 - 0.0 - - 10 - - - -
22/10:30pm 22.8 SE 3 6 1014.5 - 0.0 - - 10 - - - -
22/10:00pm 23.1 SSE 2 3 1014.3 - 0.0 - - 10 - - - -
22/09:30pm 23.6 SSW 1 2 1014.1 - 0.0 - - 10 - - - -
22/09:00pm 24.0 SSW 2 3 1013.8 - 0.0 - - 10 - - - -
22/08:30pm 24.4 SSW 3 5 1013.8 - 0.0 - Partly cloudy 10 - - - -
22/08:00pm 24.6 SW 3 6 1013.4 - 0.0 - Partly cloudy 10 - - - -
22/07:30pm 24.7 W 4 7 1012.9 - 0.0 - Partly cloudy 10 - - - -
22/07:00pm 24.9 W 5 10 1012.4 - 0.0 - Partly cloudy 10 - - - -
22/06:30pm 24.9 WNW 6 10 1012.0 - 0.0 - - 10 - - - -
22/06:00pm 25.7 WNW 8 13 1011.5 - 0.0 - Cloudy 10 - - - -
22/05:30pm 26.9 WNW 7 12 1011.3 - 0.0 - - 10 - - - -
22/05:00pm 28.2 W 6 10 1011.2 - 0.0 - - 10 - - - -
22/04:30pm 28.6 W 6 10 1011.2 - 0.0 - - 10 - - - -
22/04:00pm 29.4 WSW 7 10 1011.2 - 0.0 - - 10 - - - -
22/03:30pm 29.2 W 7 13 1011.3 - 0.0 - - 10 - - - -
22/03:00pm 29.0 W 9 16 1011.4 F 0.0 Smoke Partly cloudy 15 - - - -
22/02:30pm 30.9 NW 5 11 1011.6 - 0.0 - - 10 - - - -
22/02:00pm 30.7 SE 5 9 1012.2 - 0.0 - Partly cloudy 10 - - - -
22/01:30pm 30.7 SE 5 12 1012.7 - 0.0 - Partly cloudy 10 - - - -
22/01:00pm 31.1 ESE 4 11 1013.3 - 0.0 - Partly cloudy 10 - - - -
22/12:30pm 30.3 SE 5 10 1013.8 - 0.0 - Partly cloudy 10 - - - -
22/12:00pm 29.4 SSE 5 8 1014.1 - 0.0 - Cloudy 10 - - - -
22/11:30am 29.2 E 7 11 1014.8 - 0.0 - Partly cloudy 10 - - - -
22/11:00am 28.1 SE 7 11 1015.3 - 0.0 - Partly cloudy 10 - - - -
22/10:30am 27.4 ESE 9 13 1015.7 - 0.0 - - 10 - - - -
22/10:00am 27.4 E 9 14 1015.9 - 0.0 - - 10 - - - -
22/09:30am 26.4 ESE 11 16 1016.0 - 0.0 - - 10 - - - -
22/09:00am 25.3 ESE 10 15 1015.9 F 0.0 Haze Mostly clear 30 - - - -
22/08:30am 24.0 ESE 8 11 1015.9 - 0.0 - - 10 - - - -
22/08:00am 22.4 ESE 7 9 1015.9 - 0.0 - - 7 - - - -
22/07:30am 21.1 ESE 5 7 1015.7 - 0.0 - - 10 - - - -
22/07:00am 20.2 ESE 3 4 1015.5 - 0.0 - - 10 - - - -
22/06:30am 20.0 SE 3 4 1015.1 - 0.0 - - 10 - - - -
22/06:00am 20.2 ESE 3 3 1014.7 F 0.0 Fine Mostly clear 35 - - - -
22/05:30am 20.5 E 1 2 1014.6 - 0.0 - - 10 - - - -
22/05:00am 20.7 ESE 2 3 1014.5 - 0.0 - - 10 - - - -
22/04:30am 21.3 E 1 2 1014.5 - 0.0 - - 10 - - - -
22/04:00am 21.8 SE 2 3 1014.6 - 0.0 - - 10 - - - -
22/03:30am 22.3 ESE 2 3 1014.5 - 0.0 - - 9 - - - -
22/03:00am 22.9 E 3 3 1014.5 - 0.0 - Cloudy 10 - - - -
22/02:30am 23.1 ESE 2 3 1014.6 - 0.0 - Cloudy 10 - - - -
22/02:00am 23.0 CALM 0 1 1014.7 - 0.0 - Cloudy 10 - - - -
22/01:30am 23.2 SE 2 3 1014.7 - 0.0 - Cloudy 10 - - - -
22/01:00am 23.3 SSW 2 3 1014.9 - 0.0 - Cloudy 10 - - - -
22/12:30am 23.4 SE 2 3 1015.2 - 0.0 - Partly cloudy 10 - - - -
22/12:00am 23.2 SSE 3 4 1015.3 - 0.0 - Cloudy 10 - - - -
 
Date/Time
EST
Temp

°C
Wind Pressure Rain
since 9am
mm
Weather Cloud Vis
km
Sea
Height
m
Swell
Dir
 
Speed
knots
Gust
knots
hPa Trend Height
m
Period
s
Dir
21/11:30pm 22.9 S 1 2 1015.4 - 0.0 - Partly cloudy 10 - - - -
21/11:00pm 23.2 SSE 3 4 1015.4 - 0.0 - Partly cloudy 10 - - - -
21/10:30pm 23.6 SSE 2 3 1015.3 - 0.0 - Partly cloudy 10 - - - -
21/10:00pm 23.7 SSE 3 4 1015.2 - 0.0 - Partly cloudy 10 - - - -
21/09:30pm 23.6 S 2 3 1014.9 - 0.0 - Partly cloudy 10 - - - -
21/09:00pm 23.5 S 2 3 1014.5 - 0.0 - - 10 - - - -
21/08:30pm 23.8 S 4 7 1014.2 - 0.0 - Partly cloudy 10 - - - -
21/08:00pm 23.9 SSW 3 5 1013.7 - 0.0 - - 10 - - - -
21/07:30pm 23.9 WSW 4 7 1012.9 - 0.0 - - 10 - - - -
21/07:00pm 24.1 WSW 4 7 1012.5 - 0.0 - - 10 - - - -
21/06:30pm 24.5 W 6 12 1012.1 - 0.0 - - 10 - - - -
21/06:00pm 25.2 W 7 12 1011.7 - 0.0 - - 10 - - - -
21/05:30pm 25.9 W 8 15 1011.5 - 0.0 - - 10 - - - -
21/05:00pm 26.8 W 9 15 1011.3 - 0.0 - - 10 - - - -
21/04:30pm 27.9 WNW 10 17 1011.1 - 0.0 - - 10 - - - -
21/04:00pm 28.9 WSW 7 13 1010.8 - 0.0 - - 10 - - - -
21/03:30pm 29.5 WSW 7 12 1010.7 - 0.0 - - 10 - - - -
21/03:00pm 30.9 SSW 3 7 1010.9 F 0.0 Haze Mostly clear 20 - - - -
21/02:30pm 30.4 WSW 5 9 1011.3 - 0.0 - Partly cloudy 10 - - - -
21/02:00pm 30.0 SSW 4 8 1011.8 - 0.0 - Partly cloudy 10 - - - -
21/01:30pm 30.7 NNE 2 4 1012.2 - 0.0 - Partly cloudy 10 - - - -
21/01:00pm 30.6 S 4 9 1012.6 - 0.0 - Partly cloudy 10 - - - -
21/12:30pm 30.2 E 5 9 1013.1 - 0.0 - - 10 - - - -
21/12:00pm 29.7 SE 6 10 1013.6 F 0.0 Smoke Mostly cloudy 15 - - - -
21/11:30am 29.5 ESE 6 12 1014.1 - 0.0 - Partly cloudy 10 - - - -
21/11:00am 28.1 E 7 14 1014.5 - 0.0 - Partly cloudy 10 - - - -
21/10:30am 27.5 ESE 7 13 1015.0 - 0.0 - - 10 - - - -
21/10:00am 26.9 E 8 13 1015.3 - 0.0 - Mostly clear 10 - - - -
21/09:30am 25.8 ESE 10 14 1015.3 - 0.0 - Partly cloudy 10 - - - -
21/09:00am 25.0 ESE 8 12 1015.3 R 0.0 Fine Partly cloudy 30 - - - -
21/08:30am 24.2 ESE 7 10 1015.1 - 0.0 - - 10 - - - -
21/08:00am 23.4 ESE 5 6 1014.9 - 0.0 - - 10 - - - -
21/07:30am 22.3 ESE 4 5 1014.6 - 0.0 - - 10 - - - -
21/07:00am 22.1 SE 4 5 1014.3 - 0.0 - - 10 - - - -
21/06:30am 22.5 E 4 6 1014.1 - 0.0 - Cloudy 10 - - - -
21/06:00am 22.6 E 4 7 1013.7 F 0.0 Fine Mostly cloudy 25 - - - -
21/05:30am 22.8 ESE 5 6 1013.7 - 0.0 - Partly cloudy 10 - - - -
21/05:00am 22.8 SSE 2 4 1013.8 - 0.0 - Partly cloudy 10 - - - -

Other Formats:

Comma delimited format used in spreadsheet applications
http://www.bom.gov.au/fwo/IDQ60701/IDQ60701.94170.axf

JavaScript Object Notation format (JSON) in row-major order
http://www.bom.gov.au/fwo/IDQ60701/IDQ60701.94170.json